Del Norte International Airport
MMAN : now visible

Airfield :











YOU CAN JOIN US ON...

 
LOGIN :

Register | Disclaimer

   EN    FR    IT 

 









Legend :    VFR   Marginal VFR   IFR   Intensive IFR   Very Intensive IFR
Visi :
Ceiling :
>= 8 km
>= 3000ft
5 to 8 km
1000 to 3000 ft
1500m to 5 km
500 to 1000 ft
800 to 1500m
200 to 500 ft
< 800m
< 200 ft
Symbols :   Thunderstorms  Fog  Heavy snow  Heavy precipitations  Wind > 20 kt






- Airport Elevation : 1476 ft
- IATA code : NTR


MMAN - Del Norte International

CURRENT METAR :
  • 270340Z 00000KT 10SM SKC 10/M13 A3049

EXPIRED METARs :
  • 270240Z 36008KT 10SM SKC 11/M15 A3046 RMK SLP/// 5//// 9//
  • 270140Z 02003KT 12SM SKC 12/M15 A3042

TAF TAF MMAN
Valid from the 26 at 18:00 until the 27 at 18:00 UTC


261632Z 2618/2718 35015G25KT 6SM VC BLDU OVC090
FM262100 02010G20KT P6SM SKC
FM270000 02010KT P6SM SKC



MET'MAP, your aeronautical weather chart ! - Copyright ORBIFLY December 2007 - Disclaimer

ORBIFLY MET'MAP TEAM :

Programming & Development : Alexandra Zaïnal
Concept & original design : Baudouin d'Aumeries
Assistance for programming : Marc-Olivier Méhu
Technical & hardware support : Manuel Goepfert

Contact : metmap@orbifly.com




SOURCES & CREDITS :

   NOAA       Earth
Advisory